createdAt,value
2022-11-02T00:00:52.263Z,100.00
2022-11-02T00:03:18.808Z,100.00
2022-11-02T00:05:45.388Z,100.00
2022-11-02T00:08:11.992Z,100.00
2022-11-02T00:10:38.566Z,100.00
2022-11-02T00:13:05.617Z,100.00
2022-11-02T00:15:34.896Z,100.00
2022-11-02T00:20:30.703Z,100.00
2022-11-02T00:22:59.008Z,100.00
2022-11-02T00:25:26.342Z,100.00
2022-11-02T00:27:53.177Z,100.00
2022-11-02T00:30:19.868Z,100.00
2022-11-02T00:32:46.543Z,100.00
2022-11-02T00:35:13.341Z,100.00
2022-11-02T00:37:39.876Z,100.00
2022-11-02T00:40:06.775Z,100.00
2022-11-02T00:42:33.391Z,100.00
2022-11-02T00:44:59.990Z,100.00
2022-11-02T00:47:26.523Z,100.00
2022-11-02T00:49:53.145Z,100.00
2022-11-02T00:52:19.693Z,100.00
2022-11-02T00:54:46.308Z,100.00
2022-11-02T00:57:12.836Z,100.00
2022-11-02T00:59:39.461Z,100.00
2022-11-02T01:02:06.131Z,100.00
2022-11-02T01:04:32.797Z,100.00
2022-11-02T01:06:59.386Z,100.00
2022-11-02T01:09:26.116Z,100.00
2022-11-02T01:11:53.053Z,100.00
2022-11-02T01:14:19.609Z,100.00
2022-11-02T01:19:17.681Z,100.00
2022-11-02T01:21:44.299Z,100.00
2022-11-02T01:24:10.867Z,100.00
2022-11-02T01:26:37.557Z,100.00
2022-11-02T01:29:04.101Z,100.00
2022-11-02T01:31:30.676Z,100.00
2022-11-02T01:33:57.262Z,100.00
2022-11-02T01:36:24.044Z,100.00
2022-11-02T01:38:50.765Z,100.00
2022-11-02T01:41:17.805Z,100.00
2022-11-02T01:43:45.957Z,100.00
2022-11-02T01:46:12.660Z,100.00
2022-11-02T01:48:48.181Z,100.00
2022-11-02T01:51:21.024Z,100.00
2022-11-02T01:53:49.691Z,100.00
2022-11-02T01:56:18.166Z,100.00
2022-11-02T01:58:47.140Z,100.00
2022-11-02T02:01:13.803Z,100.00
2022-11-02T02:03:40.718Z,100.00
2022-11-02T02:06:10.223Z,100.00
2022-11-02T02:08:39.164Z,100.00
2022-11-02T02:11:24.436Z,100.00
2022-11-02T02:13:51.471Z,100.00
2022-11-02T02:16:21.372Z,100.00
2022-11-02T02:18:50.303Z,100.00
2022-11-02T02:21:16.841Z,100.00
2022-11-02T02:23:59.711Z,100.00
2022-11-02T02:26:45.073Z,100.00
2022-11-02T02:29:18.686Z,100.00
2022-11-02T02:31:51.659Z,100.00
2022-11-02T02:34:24.851Z,100.00
2022-11-02T02:37:10.530Z,100.00
2022-11-02T02:39:50.444Z,100.00
2022-11-02T02:42:23.788Z,100.00
2022-11-02T02:45:05.578Z,100.00
2022-11-02T02:47:33.541Z,100.00
2022-11-02T02:50:11.515Z,100.00
2022-11-02T02:52:39.413Z,100.00
2022-11-02T02:55:07.872Z,100.00
2022-11-02T02:57:35.310Z,100.00
2022-11-02T03:00:01.844Z,100.00
2022-11-02T03:02:30.814Z,100.00
2022-11-02T03:04:57.454Z,100.00
2022-11-02T03:07:29.646Z,100.00
2022-11-02T03:10:07.072Z,100.00
2022-11-02T03:12:39.762Z,100.00
2022-11-02T03:15:06.316Z,100.00
2022-11-02T03:17:39.677Z,100.00
2022-11-02T03:20:12.316Z,100.00
2022-11-02T03:22:38.895Z,100.00
2022-11-02T03:25:14.800Z,100.00
2022-11-02T03:27:59.897Z,100.00
2022-11-02T03:30:28.411Z,100.00
2022-11-02T03:32:54.953Z,100.00
2022-11-02T03:35:23.537Z,100.00
2022-11-02T03:37:52.889Z,100.00
2022-11-02T03:40:29.511Z,100.00
2022-11-02T03:42:56.835Z,100.00
2022-11-02T03:45:25.073Z,100.00
2022-11-02T03:47:54.475Z,100.00
2022-11-02T03:50:23.580Z,100.00
2022-11-02T03:53:05.266Z,100.00
2022-11-02T03:55:35.456Z,100.00
2022-11-02T03:58:02.274Z,100.00
2022-11-02T04:00:32.570Z,100.00
2022-11-02T04:03:00.387Z,100.00
2022-11-02T04:05:31.866Z,100.00
2022-11-02T04:08:17.195Z,100.00
2022-11-02T04:11:02.201Z,100.00
2022-11-02T04:13:47.810Z,100.00
2022-11-02T04:16:15.016Z,100.00
2022-11-02T04:18:59.842Z,100.00
2022-11-02T04:21:26.477Z,100.00
2022-11-02T04:24:11.659Z,100.00
2022-11-02T04:26:38.282Z,100.00
2022-11-02T04:29:05.094Z,100.00
2022-11-02T04:31:32.045Z,100.00
2022-11-02T04:33:59.892Z,100.00
2022-11-02T04:36:28.755Z,100.00
2022-11-02T04:38:55.337Z,100.00
2022-11-02T04:41:41.387Z,100.00
2022-11-02T04:44:08.347Z,100.00
2022-11-02T04:46:35.977Z,100.00
2022-11-02T04:49:02.688Z,100.00
2022-11-02T04:51:30.145Z,100.00
2022-11-02T04:53:57.776Z,100.00
2022-11-02T04:56:25.167Z,100.00
2022-11-02T04:58:52.986Z,100.00
2022-11-02T05:01:23.501Z,100.00
2022-11-02T05:03:50.566Z,100.00
2022-11-02T05:06:17.787Z,100.00
2022-11-02T05:08:44.382Z,100.00
2022-11-02T05:11:11.826Z,100.00
2022-11-02T05:13:39.166Z,100.00
2022-11-02T05:16:06.519Z,100.00
2022-11-02T05:18:33.403Z,100.00
2022-11-02T05:21:01.508Z,100.00
2022-11-02T05:23:28.413Z,100.00
2022-11-02T05:25:56.179Z,100.00
2022-11-02T05:28:23.167Z,100.00
2022-11-02T05:30:49.784Z,100.00
2022-11-02T05:33:16.434Z,100.00
2022-11-02T05:35:42.991Z,100.00
2022-11-02T05:38:09.599Z,100.00
2022-11-02T05:40:40.762Z,100.00
2022-11-02T05:43:10.236Z,100.00
2022-11-02T05:45:36.966Z,100.00
2022-11-02T05:48:04.291Z,100.00
2022-11-02T05:50:30.942Z,100.00
2022-11-02T05:52:57.545Z,100.00
2022-11-02T05:55:25.083Z,100.00
2022-11-02T05:57:55.334Z,100.00
2022-11-02T06:00:22.630Z,100.00
2022-11-02T06:02:49.211Z,100.00
2022-11-02T06:05:15.933Z,100.00
2022-11-02T06:07:42.594Z,100.00
2022-11-02T06:10:09.267Z,100.00
2022-11-02T06:12:35.881Z,100.00
2022-11-02T06:15:02.530Z,100.00
2022-11-02T06:17:29.144Z,100.00
2022-11-02T06:19:55.677Z,100.00
2022-11-02T06:22:22.229Z,100.00
2022-11-02T06:24:48.802Z,100.00
2022-11-02T06:27:15.474Z,100.00
2022-11-02T06:29:42.010Z,100.00
2022-11-02T06:32:08.593Z,100.00
2022-11-02T06:34:35.154Z,100.00
2022-11-02T06:37:01.713Z,100.00
2022-11-02T06:39:28.258Z,100.00
2022-11-02T06:41:55.065Z,100.00
2022-11-02T06:44:21.665Z,100.00
2022-11-02T06:46:49.641Z,100.00
2022-11-02T06:49:16.437Z,100.00
2022-11-02T06:51:42.984Z,100.00
2022-11-02T06:54:09.559Z,100.00
2022-11-02T06:56:36.394Z,100.00
2022-11-02T06:59:03.084Z,100.00
2022-11-02T07:01:29.830Z,100.00
2022-11-02T07:03:56.605Z,100.00
2022-11-02T07:06:23.191Z,100.00
2022-11-02T07:08:49.767Z,100.00
2022-11-02T07:11:16.482Z,100.00
2022-11-02T07:13:43.603Z,100.00
2022-11-02T07:16:10.186Z,100.00
2022-11-02T07:18:36.795Z,100.00
2022-11-02T07:21:03.456Z,100.00
2022-11-02T07:23:30.537Z,100.00
2022-11-02T07:25:57.123Z,100.00
2022-11-02T07:28:23.689Z,100.00
2022-11-02T07:30:53.929Z,100.00
2022-11-02T07:33:20.514Z,100.00
2022-11-02T07:35:47.084Z,100.00
2022-11-02T07:38:13.779Z,100.00
2022-11-02T07:40:40.381Z,100.00
2022-11-02T07:43:07.458Z,100.00
2022-11-02T07:45:34.318Z,100.00
2022-11-02T07:48:01.034Z,100.00
2022-11-02T07:50:27.720Z,100.00
2022-11-02T07:52:55.352Z,100.00
2022-11-02T07:55:23.853Z,100.00
2022-11-02T07:57:53.933Z,100.00
2022-11-02T08:00:20.740Z,100.00
2022-11-02T08:02:47.389Z,100.00
2022-11-02T08:05:14.234Z,100.00
2022-11-02T08:07:40.861Z,100.00
2022-11-02T08:10:07.609Z,100.00
2022-11-02T08:12:34.184Z,100.00
2022-11-02T08:15:06.343Z,100.00
2022-11-02T08:17:34.114Z,100.00
2022-11-02T08:20:00.689Z,100.00
2022-11-02T08:22:27.325Z,100.00
2022-11-02T08:24:53.871Z,100.00
2022-11-02T08:27:20.421Z,100.00
2022-11-02T08:29:46.995Z,100.00
2022-11-02T08:32:13.607Z,100.00
2022-11-02T08:34:40.234Z,100.00
2022-11-02T08:37:07.948Z,100.00
2022-11-02T08:39:34.586Z,100.00
2022-11-02T08:42:01.169Z,100.00
2022-11-02T08:44:31.304Z,100.00
2022-11-02T08:46:59.381Z,100.00
2022-11-02T08:49:26.627Z,100.00
2022-11-02T08:51:53.205Z,100.00
2022-11-02T08:54:20.179Z,100.00
2022-11-02T08:56:47.394Z,100.00
2022-11-02T08:59:14.061Z,100.00
2022-11-02T09:01:40.782Z,100.00
2022-11-02T09:04:07.488Z,100.00
2022-11-02T09:06:34.184Z,100.00
2022-11-02T09:09:02.830Z,100.00
2022-11-02T09:11:30.097Z,100.00
2022-11-02T09:13:57.242Z,100.00
2022-11-02T09:16:26.763Z,100.00
2022-11-02T09:18:53.381Z,100.00
2022-11-02T09:21:20.088Z,100.00
2022-11-02T09:23:48.645Z,100.00
2022-11-02T09:26:15.592Z,100.00
2022-11-02T09:28:42.188Z,100.00
2022-11-02T09:31:11.563Z,100.00
2022-11-02T09:33:38.953Z,100.00
2022-11-02T09:36:05.987Z,100.00
2022-11-02T09:38:32.933Z,100.00
2022-11-02T09:40:59.640Z,100.00
2022-11-02T09:43:44.908Z,100.00
2022-11-02T09:46:19.023Z,100.00
2022-11-02T09:48:51.252Z,100.00
2022-11-02T09:51:26.642Z,100.00
2022-11-02T09:54:14.655Z,100.00
2022-11-02T09:56:44.528Z,100.00
2022-11-02T09:59:15.810Z,100.00
2022-11-02T10:02:02.875Z,100.00
2022-11-02T10:04:57.015Z,100.00
2022-11-02T10:07:29.038Z,100.00
2022-11-02T10:10:34.045Z,100.00
2022-11-02T10:13:00.676Z,100.00
2022-11-02T10:15:41.376Z,100.00
2022-11-02T10:18:16.286Z,100.00
2022-11-02T10:20:46.463Z,100.00
2022-11-02T10:23:25.416Z,100.00
2022-11-02T10:25:52.590Z,100.00
2022-11-02T10:28:25.210Z,100.00
2022-11-02T10:30:54.396Z,100.00
2022-11-02T10:33:26.969Z,100.00
2022-11-02T10:36:21.965Z,100.00
2022-11-02T10:39:03.518Z,100.00
2022-11-02T10:41:49.818Z,100.00
2022-11-02T10:44:54.700Z,100.00
2022-11-02T10:47:33.443Z,100.00
2022-11-02T10:50:18.406Z,100.00
2022-11-02T10:52:46.624Z,100.00
2022-11-02T10:55:29.870Z,100.00
2022-11-02T10:58:00.721Z,100.00
2022-11-02T11:00:32.056Z,100.00
2022-11-02T11:03:17.764Z,100.00
2022-11-02T11:05:50.199Z,100.00
2022-11-02T11:08:43.235Z,100.00
2022-11-02T11:11:35.859Z,100.00
2022-11-02T11:20:07.627Z,100.00
2022-11-02T11:22:41.802Z,100.00
2022-11-02T11:25:28.223Z,100.00
2022-11-02T11:27:59.870Z,100.00
2022-11-02T11:30:58.228Z,100.00
2022-11-02T11:33:21.111Z,100.00
2022-11-02T11:35:50.262Z,100.00
2022-11-02T11:38:21.359Z,100.00
2022-11-02T11:40:59.712Z,100.00
2022-11-02T11:43:30.531Z,100.00
2022-11-02T11:46:06.484Z,97.96
2022-11-02T11:48:49.232Z,96.36
2022-11-02T11:51:43.369Z,93.52
2022-11-02T11:54:34.306Z,93.30
2022-11-02T11:57:31.689Z,93.50
2022-11-02T12:00:05.292Z,93.06
2022-11-02T12:02:44.041Z,93.76
2022-11-02T12:05:17.958Z,94.44
2022-11-02T12:08:14.466Z,94.77
2022-11-02T12:10:53.092Z,97.64
2022-11-02T12:13:22.807Z,99.11
2022-11-02T12:16:18.571Z,100.00
2022-11-02T12:18:48.347Z,100.00
2022-11-02T12:21:20.997Z,100.00
2022-11-02T12:24:26.629Z,100.00
2022-11-02T12:26:53.263Z,100.00
2022-11-02T12:29:50.902Z,100.00
2022-11-02T12:32:26.539Z,100.00
2022-11-02T12:35:28.331Z,100.00
2022-11-02T12:38:05.079Z,100.00
2022-11-02T12:40:50.083Z,100.00
2022-11-02T12:43:35.062Z,100.00
2022-11-02T12:46:04.777Z,100.00
2022-11-02T12:48:57.589Z,100.00
2022-11-02T12:51:57.625Z,100.00
2022-11-02T12:54:32.169Z,100.00
2022-11-02T12:56:59.324Z,100.00
2022-11-02T12:59:32.970Z,100.00
2022-11-02T13:02:17.847Z,100.00
2022-11-02T13:04:57.636Z,100.00
2022-11-02T13:07:45.830Z,100.00
2022-11-02T13:10:53.894Z,100.00
2022-11-02T13:13:55.987Z,100.00
2022-11-02T13:16:45.766Z,100.00
2022-11-02T13:19:21.778Z,100.00
2022-11-02T13:21:55.695Z,100.00
2022-11-02T13:24:38.988Z,100.00
2022-11-02T13:27:14.779Z,100.00
2022-11-02T13:29:58.852Z,100.00
2022-11-02T13:32:34.700Z,100.00
2022-11-02T13:35:13.448Z,100.00
2022-11-02T13:37:46.156Z,100.00
2022-11-02T13:40:29.160Z,100.00
2022-11-02T13:43:04.678Z,100.00
2022-11-02T13:45:34.760Z,100.00
2022-11-02T13:48:32.476Z,100.00
2022-11-02T13:51:04.767Z,100.00
2022-11-02T13:53:38.142Z,100.00
2022-11-02T14:08:26.534Z,100.00
2022-11-02T14:11:11.481Z,100.00
2022-11-02T14:13:56.568Z,100.00
2022-11-02T14:16:46.386Z,100.00
2022-11-02T14:19:32.365Z,100.00
2022-11-02T14:21:59.512Z,100.00
2022-11-02T14:24:47.931Z,100.00
2022-11-02T14:27:19.149Z,100.00
2022-11-02T14:29:46.244Z,100.00
2022-11-02T14:32:24.027Z,100.00
2022-11-02T14:35:21.484Z,100.00
2022-11-02T14:38:16.812Z,100.00
2022-11-02T14:41:12.801Z,100.00
2022-11-02T14:43:45.542Z,100.00
2022-11-02T14:46:21.098Z,100.00
2022-11-02T14:48:51.522Z,100.00
2022-11-02T14:51:23.520Z,100.00
2022-11-02T14:54:28.037Z,100.00
2022-11-02T14:56:59.999Z,100.00
2022-11-02T14:59:40.287Z,100.00
2022-11-02T15:02:19.008Z,100.00
2022-11-02T15:04:52.471Z,100.00
2022-11-02T15:07:24.252Z,100.00
2022-11-02T15:09:50.907Z,100.00
2022-11-02T15:12:32.172Z,100.00
2022-11-02T15:15:05.591Z,100.00
2022-11-02T15:17:32.245Z,100.00
2022-11-02T15:19:58.882Z,100.00
2022-11-02T15:22:37.090Z,100.00
2022-11-02T15:25:17.075Z,100.00
2022-11-02T15:27:45.138Z,100.00
2022-11-02T15:30:22.535Z,100.00
2022-11-02T15:33:00.416Z,100.00
2022-11-02T15:35:35.027Z,100.00
2022-11-02T15:38:16.915Z,100.00
2022-11-02T15:40:47.937Z,100.00
2022-11-02T15:43:39.312Z,100.00
2022-11-02T15:46:20.815Z,100.00
2022-11-02T15:48:57.092Z,100.00
2022-11-02T15:51:23.770Z,100.00
2022-11-02T15:54:11.777Z,100.00
2022-11-02T15:56:46.245Z,100.00
2022-11-02T15:59:51.544Z,100.00
2022-11-02T16:02:29.836Z,100.00
2022-11-02T16:04:59.965Z,100.00
2022-11-02T16:07:33.388Z,100.00
2022-11-02T16:10:21.236Z,100.00
2022-11-02T16:12:56.419Z,100.00
2022-11-02T16:15:23.385Z,100.00
2022-11-02T16:17:50.478Z,100.00
2022-11-02T16:20:28.513Z,100.00
2022-11-02T16:23:04.141Z,100.00
2022-11-02T16:25:39.625Z,100.00
2022-11-02T16:28:28.285Z,100.00
2022-11-02T16:31:19.651Z,100.00
2022-11-02T16:33:55.585Z,100.00
2022-11-02T16:36:35.905Z,100.00
2022-11-02T16:39:07.565Z,100.00
2022-11-02T16:41:35.838Z,100.00
2022-11-02T16:44:17.746Z,100.00
2022-11-02T16:47:07.496Z,100.00
2022-11-02T16:49:55.476Z,100.00
2022-11-02T16:52:25.858Z,100.00
2022-11-02T16:54:52.547Z,100.00
2022-11-02T16:57:21.518Z,100.00
2022-11-02T17:00:04.340Z,100.00
2022-11-02T17:02:39.803Z,100.00
2022-11-02T17:05:15.303Z,100.00
2022-11-02T17:07:44.675Z,100.00
2022-11-02T17:10:24.502Z,100.00
2022-11-02T17:12:51.366Z,100.00
2022-11-02T17:15:22.051Z,100.00
2022-11-02T17:17:49.645Z,100.00
2022-11-02T17:20:22.253Z,100.00
2022-11-02T17:22:59.743Z,100.00
2022-11-02T17:25:31.124Z,100.00
2022-11-02T17:28:00.073Z,100.00
2022-11-02T17:30:30.241Z,100.00
2022-11-02T17:32:58.053Z,100.00
2022-11-02T17:35:27.376Z,100.00
2022-11-02T17:37:54.568Z,100.00
2022-11-02T17:40:22.600Z,100.00
2022-11-02T17:42:59.609Z,100.00
2022-11-02T17:45:27.252Z,100.00
2022-11-02T17:47:55.249Z,100.00
2022-11-02T17:50:23.205Z,100.00
2022-11-02T17:52:50.870Z,100.00
2022-11-02T17:55:27.081Z,100.00
2022-11-02T17:57:55.010Z,100.00
2022-11-02T18:00:23.546Z,100.00
2022-11-02T18:02:52.993Z,100.00
2022-11-02T18:05:36.238Z,100.00
2022-11-02T18:08:04.948Z,100.00
2022-11-02T18:10:40.245Z,100.00
2022-11-02T18:13:08.409Z,100.00
2022-11-02T18:15:35.284Z,100.00
2022-11-02T18:18:02.398Z,100.00
2022-11-02T18:20:30.779Z,100.00
2022-11-02T18:22:58.742Z,100.00
2022-11-02T18:25:31.949Z,100.00
2022-11-02T18:28:00.609Z,100.00
2022-11-02T18:30:29.996Z,100.00
2022-11-02T18:32:57.540Z,100.00
2022-11-02T18:35:25.122Z,100.00
2022-11-02T18:37:52.491Z,100.00
2022-11-02T18:40:20.906Z,100.00
2022-11-02T18:42:48.009Z,100.00
2022-11-02T18:45:16.212Z,100.00
2022-11-02T18:47:43.418Z,100.00
2022-11-02T18:50:13.435Z,100.00
2022-11-02T18:52:42.256Z,100.00
2022-11-02T18:55:09.176Z,100.00
2022-11-02T18:57:36.375Z,100.00
2022-11-02T19:00:04.501Z,100.00
2022-11-02T19:02:31.866Z,100.00
2022-11-02T19:04:59.135Z,100.00
2022-11-02T19:07:44.467Z,100.00
2022-11-02T19:10:11.559Z,100.00
2022-11-02T19:12:38.650Z,100.00
2022-11-02T19:15:06.323Z,100.00
2022-11-02T19:17:33.376Z,100.00
2022-11-02T19:20:00.522Z,100.00
2022-11-02T19:22:27.789Z,100.00
2022-11-02T19:24:54.960Z,100.00
2022-11-02T19:27:23.953Z,100.00
2022-11-02T19:29:51.679Z,100.00
2022-11-02T19:32:19.181Z,100.00
2022-11-02T19:34:46.711Z,100.00
2022-11-02T19:37:14.677Z,100.00
2022-11-02T19:39:41.861Z,100.00
2022-11-02T19:42:09.082Z,100.00
2022-11-02T19:44:42.276Z,100.00
2022-11-02T19:47:10.362Z,100.00
2022-11-02T19:49:37.517Z,100.00
2022-11-02T19:52:05.307Z,100.00
2022-11-02T19:54:32.408Z,100.00
2022-11-02T19:56:59.458Z,100.00
2022-11-02T19:59:26.700Z,100.00
2022-11-02T20:01:54.511Z,100.00
2022-11-02T20:04:21.322Z,100.00
2022-11-02T20:06:48.351Z,100.00
2022-11-02T20:09:18.271Z,100.00
2022-11-02T20:11:46.771Z,100.00
2022-11-02T20:14:16.035Z,100.00
2022-11-02T20:16:44.895Z,100.00
2022-11-02T20:19:12.482Z,100.00
2022-11-02T20:21:42.955Z,100.00
2022-11-02T20:24:11.275Z,100.00
2022-11-02T20:26:41.444Z,100.00
2022-11-02T20:29:12.265Z,100.00
2022-11-02T20:31:42.571Z,100.00
2022-11-02T20:34:09.899Z,100.00
2022-11-02T20:36:36.810Z,100.00
2022-11-02T20:39:05.921Z,100.00
2022-11-02T20:41:34.627Z,100.00
2022-11-02T20:44:01.488Z,100.00
2022-11-02T20:46:39.901Z,100.00
2022-11-02T20:49:21.226Z,100.00
2022-11-02T20:51:54.860Z,100.00
2022-11-02T20:54:22.970Z,100.00
2022-11-02T20:56:50.443Z,100.00
2022-11-02T20:59:17.950Z,100.00
2022-11-02T21:01:45.325Z,100.00
2022-11-02T21:04:19.443Z,100.00
2022-11-02T21:06:47.351Z,100.00
2022-11-02T21:09:14.383Z,100.00
2022-11-02T21:11:59.772Z,100.00
2022-11-02T21:14:26.582Z,100.00
2022-11-02T21:16:53.334Z,100.00
2022-11-02T21:19:20.044Z,100.00
2022-11-02T21:21:46.821Z,100.00
2022-11-02T21:24:13.810Z,100.00
2022-11-02T21:26:40.940Z,100.00
2022-11-02T21:29:08.908Z,100.00
2022-11-02T21:31:35.588Z,100.00
2022-11-02T21:34:02.265Z,100.00
2022-11-02T21:36:29.056Z,100.00
2022-11-02T21:38:56.215Z,100.00
2022-11-02T21:41:29.082Z,100.00
2022-11-02T21:43:56.132Z,100.00
2022-11-02T21:46:25.828Z,100.00
2022-11-02T21:48:52.698Z,100.00
2022-11-02T21:51:21.375Z,100.00
2022-11-02T21:53:49.787Z,100.00
2022-11-02T21:56:22.463Z,100.00
2022-11-02T21:58:49.779Z,100.00
2022-11-02T22:01:36.780Z,100.00
2022-11-02T22:04:04.728Z,100.00
2022-11-02T22:06:32.098Z,100.00
2022-11-02T22:09:00.051Z,100.00
2022-11-02T22:11:27.315Z,100.00
2022-11-02T22:13:55.922Z,100.00
2022-11-02T22:16:25.288Z,100.00
2022-11-02T22:18:55.207Z,100.00
2022-11-02T22:21:26.148Z,100.00
2022-11-02T22:23:53.131Z,100.00
2022-11-02T22:26:22.338Z,100.00
2022-11-02T22:28:49.663Z,100.00
2022-11-02T22:31:17.654Z,100.00
2022-11-02T22:33:46.130Z,100.00
2022-11-02T22:36:15.001Z,100.00
2022-11-02T22:38:48.802Z,100.00
2022-11-02T22:41:16.549Z,100.00
2022-11-02T22:43:43.715Z,100.00
2022-11-02T22:46:11.042Z,100.00
2022-11-02T22:48:37.715Z,100.00
2022-11-02T22:51:06.227Z,100.00
2022-11-02T22:53:33.452Z,100.00
2022-11-02T22:56:08.617Z,100.00
2022-11-02T22:58:37.125Z,100.00
2022-11-02T23:01:05.136Z,100.00
2022-11-02T23:03:33.339Z,100.00
2022-11-02T23:06:01.444Z,100.00
2022-11-02T23:08:29.709Z,100.00
2022-11-02T23:11:16.364Z,100.00
2022-11-02T23:13:44.160Z,100.00
2022-11-02T23:16:22.027Z,100.00
2022-11-02T23:19:25.494Z,100.00
2022-11-02T23:22:16.953Z,100.00
2022-11-02T23:25:08.718Z,100.00
2022-11-02T23:28:15.456Z,100.00
2022-11-02T23:31:01.591Z,100.00
2022-11-02T23:33:31.519Z,100.00
2022-11-02T23:36:11.397Z,100.00
2022-11-02T23:39:04.053Z,100.00
2022-11-02T23:41:32.849Z,100.00
2022-11-02T23:44:12.150Z,100.00
2022-11-02T23:46:46.961Z,100.00
2022-11-02T23:49:13.792Z,100.00
2022-11-02T23:51:58.989Z,100.00
2022-11-02T23:54:44.057Z,100.00
2022-11-02T23:57:11.268Z,100.00
2022-11-02T23:59:38.018Z,100.00
